createdAt,value
2022-10-07T00:00:26.206Z,4.38
2022-10-07T00:06:15.627Z,4.60
2022-10-07T00:11:47.018Z,6.03
2022-10-07T00:17:18.440Z,5.38
2022-10-07T00:22:49.721Z,5.50
2022-10-07T00:28:20.789Z,3.72
2022-10-07T00:33:54.640Z,5.82
2022-10-07T00:39:26.000Z,6.10
2022-10-07T00:44:56.892Z,5.43
2022-10-07T00:50:29.656Z,5.65
2022-10-07T00:56:04.595Z,6.35
2022-10-07T01:01:35.801Z,5.50
2022-10-07T01:07:07.204Z,5.40
2022-10-07T01:13:14.909Z,7.03
2022-10-07T01:19:06.228Z,5.57
2022-10-07T01:25:07.084Z,5.50
2022-10-07T01:30:42.337Z,4.93
2022-10-07T01:36:16.704Z,5.07
2022-10-07T01:41:47.934Z,6.63
2022-10-07T01:47:19.242Z,5.63
2022-10-07T01:53:04.321Z,4.73
2022-10-07T01:58:54.900Z,5.37
2022-10-07T02:04:48.015Z,5.30
2022-10-07T02:10:27.375Z,5.87
2022-10-07T02:16:19.966Z,5.63
2022-10-07T02:21:54.318Z,5.70
2022-10-07T02:27:33.046Z,6.75
2022-10-07T02:33:07.076Z,5.55
2022-10-07T02:38:39.860Z,6.25
2022-10-07T02:44:30.917Z,5.28
2022-10-07T02:50:09.032Z,5.80
2022-10-07T02:55:41.342Z,6.00
2022-10-07T03:01:17.761Z,4.85
2022-10-07T03:06:49.870Z,6.43
2022-10-07T03:12:21.365Z,5.20
2022-10-07T03:17:53.038Z,4.82
2022-10-07T03:23:25.119Z,5.10
2022-10-07T03:28:56.498Z,6.25
2022-10-07T03:34:31.966Z,5.15
2022-10-07T03:40:05.162Z,5.55
2022-10-07T03:45:43.804Z,4.90
2022-10-07T03:51:15.412Z,4.70
2022-10-07T03:56:46.676Z,4.55
2022-10-07T04:02:20.727Z,5.32
2022-10-07T04:07:52.592Z,5.30
2022-10-07T04:13:25.962Z,4.13
2022-10-07T04:18:58.290Z,4.47
2022-10-07T04:24:31.624Z,5.38
2022-10-07T04:30:04.498Z,4.80
2022-10-07T04:35:41.292Z,3.30
2022-10-07T04:41:13.419Z,5.32
2022-10-07T04:46:45.121Z,4.68
2022-10-07T04:52:19.028Z,3.60
2022-10-07T04:57:50.310Z,4.18
2022-10-07T05:03:23.599Z,3.53
2022-10-07T05:08:55.158Z,4.10
2022-10-07T05:14:28.237Z,4.30
2022-10-07T05:20:01.566Z,3.55
2022-10-07T05:25:33.453Z,4.10
2022-10-07T05:31:07.928Z,5.40
2022-10-07T05:36:39.856Z,3.53
2022-10-07T05:42:13.873Z,4.82
2022-10-07T05:47:53.341Z,4.82
2022-10-07T05:53:28.767Z,4.47
2022-10-07T05:59:00.428Z,4.38
2022-10-07T06:04:34.098Z,5.65
2022-10-07T06:10:44.976Z,4.32
2022-10-07T06:16:17.105Z,5.47
2022-10-07T06:21:50.116Z,4.68
2022-10-07T06:27:22.082Z,4.85
2022-10-07T06:32:53.906Z,4.53
2022-10-07T06:38:26.175Z,4.20
2022-10-07T06:43:58.195Z,3.72
2022-10-07T06:49:31.708Z,4.10
2022-10-07T06:55:04.320Z,5.95
2022-10-07T07:06:11.189Z,5.28
2022-10-07T07:11:44.399Z,5.03
2022-10-07T07:17:28.100Z,4.53
2022-10-07T07:23:00.479Z,5.18
2022-10-07T07:28:33.594Z,3.70
2022-10-07T07:34:11.572Z,5.07
2022-10-07T07:39:44.699Z,5.05
2022-10-07T07:45:19.579Z,4.07
2022-10-07T07:50:51.510Z,4.07
2022-10-07T07:56:23.211Z,5.00
2022-10-07T08:01:55.055Z,3.58
2022-10-07T08:07:28.667Z,3.33
2022-10-07T08:13:00.466Z,3.95
2022-10-07T08:18:32.523Z,3.42
2022-10-07T08:24:06.351Z,3.22
2022-10-07T08:29:40.599Z,3.25
2022-10-07T08:35:14.404Z,4.18
2022-10-07T08:40:52.850Z,3.55
2022-10-07T08:46:31.792Z,4.80
2022-10-07T08:52:13.586Z,3.80
2022-10-07T08:58:14.295Z,5.47
2022-10-07T09:04:02.555Z,6.53
2022-10-07T09:09:38.512Z,10.73
2022-10-07T09:15:19.185Z,11.60
2022-10-07T09:20:55.135Z,8.02
2022-10-07T09:26:27.626Z,10.05
2022-10-07T09:31:59.407Z,9.80
2022-10-07T09:37:30.345Z,11.40
2022-10-07T09:43:03.331Z,9.75
2022-10-07T09:48:34.916Z,9.25
2022-10-07T09:54:08.907Z,8.77
2022-10-07T09:59:40.457Z,9.30
2022-10-07T10:05:25.607Z,8.65
2022-10-07T10:10:58.936Z,7.75
2022-10-07T10:16:37.782Z,8.73
2022-10-07T10:22:27.219Z,8.27
2022-10-07T10:28:09.961Z,7.43
2022-10-07T10:33:54.590Z,12.45
2022-10-07T10:39:37.458Z,15.70
2022-10-07T10:45:12.505Z,11.32
2022-10-07T10:50:53.711Z,11.77
2022-10-07T10:56:38.770Z,11.18
2022-10-07T11:02:34.804Z,16.50
2022-10-07T11:08:17.460Z,12.43
2022-10-07T11:14:02.195Z,16.52
2022-10-07T11:19:40.759Z,15.20
2022-10-07T11:25:43.657Z,18.60
2022-10-07T11:31:36.637Z,15.40
2022-10-07T11:37:17.205Z,12.95
2022-10-07T11:42:50.209Z,16.50
2022-10-07T11:48:37.796Z,19.55
2022-10-07T11:54:14.886Z,20.30
2022-10-07T11:59:51.324Z,17.20
2022-10-07T12:05:34.784Z,16.80
2022-10-07T12:11:12.511Z,17.77
2022-10-07T12:16:54.709Z,14.45
2022-10-07T12:22:25.732Z,18.98
2022-10-07T12:27:57.670Z,15.77
2022-10-07T12:33:43.691Z,16.45
2022-10-07T12:39:14.601Z,16.73
2022-10-07T12:44:51.508Z,15.50
2022-10-07T12:50:23.328Z,18.90
2022-10-07T12:55:56.020Z,17.02
2022-10-07T13:01:37.883Z,18.00
2022-10-07T13:07:35.411Z,16.60
2022-10-07T13:13:09.964Z,13.60
2022-10-07T13:19:05.125Z,14.40
2022-10-07T13:24:40.098Z,15.10
2022-10-07T13:30:32.862Z,16.92
2022-10-07T13:36:13.978Z,14.93
2022-10-07T13:41:50.194Z,13.30
2022-10-07T13:47:23.001Z,14.38
2022-10-07T13:52:56.288Z,15.97
2022-10-07T13:58:32.896Z,15.55
2022-10-07T14:04:25.490Z,21.42
2022-10-07T14:10:05.070Z,18.65
2022-10-07T14:15:37.202Z,18.55
2022-10-07T14:21:10.995Z,31.48
2022-10-07T14:26:45.602Z,23.15
2022-10-07T14:32:40.923Z,20.20
2022-10-07T14:38:28.176Z,19.67
2022-10-07T14:44:00.477Z,18.20
2022-10-07T14:49:32.120Z,20.08
2022-10-07T14:55:07.852Z,16.65
2022-10-07T15:00:39.803Z,20.00
2022-10-07T15:06:10.891Z,46.92
2022-10-07T15:11:42.367Z,29.80
2022-10-07T15:17:14.571Z,24.73
2022-10-07T15:22:46.134Z,17.45
2022-10-07T15:28:18.468Z,19.45
2022-10-07T15:33:49.801Z,28.50
2022-10-07T15:39:20.988Z,15.52
2022-10-07T15:44:53.009Z,11.85
2022-10-07T15:50:25.314Z,14.45
2022-10-07T15:55:57.657Z,30.23
2022-10-07T16:01:32.199Z,16.77
2022-10-07T16:07:03.712Z,13.65
2022-10-07T16:12:34.936Z,14.63
2022-10-07T16:18:06.743Z,13.43
2022-10-07T16:23:39.555Z,12.35
2022-10-07T16:29:34.600Z,14.43
2022-10-07T16:35:05.946Z,15.88
2022-10-07T16:40:37.223Z,22.02
2022-10-07T16:46:12.699Z,20.77
2022-10-07T16:51:44.819Z,14.00
2022-10-07T16:57:15.788Z,55.20
2022-10-07T17:02:46.670Z,38.25
2022-10-07T17:08:18.431Z,28.30
2022-10-07T17:13:49.681Z,16.10
2022-10-07T17:19:23.588Z,18.20
2022-10-07T17:24:54.982Z,15.52
2022-10-07T17:30:26.466Z,15.77
2022-10-07T17:36:04.545Z,14.30
2022-10-07T17:41:37.419Z,13.85
2022-10-07T17:47:08.797Z,16.17
2022-10-07T17:52:40.153Z,15.10
2022-10-07T17:58:11.381Z,12.02
2022-10-07T18:03:43.713Z,13.55
2022-10-07T18:09:18.398Z,12.27
2022-10-07T18:15:08.125Z,12.70
2022-10-07T18:20:40.271Z,15.07
2022-10-07T18:26:13.813Z,12.55
2022-10-07T18:31:44.686Z,9.55
2022-10-07T18:37:17.057Z,12.30
2022-10-07T18:42:48.318Z,10.95
2022-10-07T18:48:19.610Z,11.50
2022-10-07T18:53:51.128Z,12.55
2022-10-07T18:59:22.242Z,12.93
2022-10-07T19:04:53.793Z,9.80
2022-10-07T19:10:24.681Z,13.68
2022-10-07T19:15:55.713Z,13.32
2022-10-07T19:21:28.147Z,12.23
2022-10-07T19:26:59.361Z,16.55
2022-10-07T19:32:30.488Z,13.82
2022-10-07T19:38:02.402Z,13.15
2022-10-07T19:43:35.675Z,11.35
2022-10-07T19:54:45.054Z,13.30
2022-10-07T20:00:16.479Z,12.57
2022-10-07T20:05:47.469Z,15.23
2022-10-07T20:11:18.722Z,12.43
2022-10-07T20:16:49.724Z,12.38
2022-10-07T20:22:20.615Z,12.70
2022-10-07T20:27:52.026Z,11.98
2022-10-07T20:33:23.376Z,15.55
2022-10-07T20:39:17.389Z,12.55
2022-10-07T20:44:53.051Z,11.50
2022-10-07T20:50:24.407Z,11.17
2022-10-07T20:55:55.410Z,10.43
2022-10-07T21:01:27.683Z,10.52
2022-10-07T21:07:00.080Z,12.98
2022-10-07T21:12:31.962Z,10.57
2022-10-07T21:18:02.908Z,11.82
2022-10-07T21:23:34.099Z,10.77
2022-10-07T21:29:07.296Z,11.05
2022-10-07T21:34:38.802Z,11.57
2022-10-07T21:40:09.994Z,11.90
2022-10-07T21:45:41.605Z,12.02
2022-10-07T21:51:13.398Z,13.63
2022-10-07T21:56:46.411Z,11.13
2022-10-07T22:02:17.465Z,11.57
2022-10-07T22:08:06.898Z,10.57
2022-10-07T22:13:44.918Z,12.70
2022-10-07T22:19:18.030Z,11.23
2022-10-07T22:24:49.186Z,9.02
2022-10-07T22:30:21.301Z,11.70
2022-10-07T22:35:52.345Z,9.73
2022-10-07T22:41:25.113Z,9.70
2022-10-07T22:46:57.385Z,9.55
2022-10-07T22:52:29.774Z,10.57
2022-10-07T22:58:02.272Z,11.18
2022-10-07T23:03:36.777Z,12.53
2022-10-07T23:09:08.052Z,9.98
2022-10-07T23:14:39.020Z,10.07
2022-10-07T23:20:10.212Z,9.93
2022-10-07T23:25:44.620Z,9.60
2022-10-07T23:31:18.796Z,11.15
2022-10-07T23:36:50.346Z,9.93
2022-10-07T23:42:21.813Z,12.27
2022-10-07T23:47:53.348Z,11.88
2022-10-07T23:53:24.215Z,12.02
2022-10-07T23:58:55.064Z,9.55
